Time;durP1;ratioP1;P1;durP2;ratioP2;P2;SDS_P1;SDS_P2;PMS_P1;PMS_P2;Temp;Humidity;BMP_temperature;BMP_pressure;BME280_temperature;BME280_humidity;BME280_pressure;Samples;Min_cycle;Max_cycle;Signal;HPM_P1;HPM_P2
2024/01/10 00:02:20;;;;;;;4.07;2.90;;;;;;;;;;5087058;28;42780;-68
2024/01/10 00:04:48;;;;;;;4.82;3.40;;;;;;;;;;5082104;28;40742;-68
2024/01/10 00:07:16;;;;;;;3.88;3.05;;;;;;;;;;5079207;28;42291;-69
2024/01/10 00:09:45;;;;;;;4.53;3.20;;;;;;;;;;5074095;28;40546;-68
2024/01/10 00:12:13;;;;;;;4.65;2.97;;;;;;;;;;5078564;28;41317;-68
2024/01/10 00:14:42;;;;;;;4.40;3.22;;;;;;;;;;5080786;28;42756;-69
2024/01/10 00:17:10;;;;;;;5.18;2.92;;;;;;;;;;5077104;28;40057;-68
2024/01/10 00:19:38;;;;;;;4.15;2.95;;;;;;;;;;5086062;28;41127;-68
2024/01/10 00:22:06;;;;;;;5.18;2.95;;;;;;;;;;5078815;28;43169;-68
2024/01/10 00:24:34;;;;;;;3.92;2.95;;;;;;;;;;5086803;28;41621;-69
2024/01/10 00:27:02;;;;;;;4.45;2.88;;;;;;;;;;5085885;28;41689;-68
2024/01/10 00:29:30;;;;;;;5.57;3.25;;;;;;;;;;5081601;28;39742;-68
2024/01/10 00:32:00;;;;;;;4.90;3.08;;;;;;;;;;5066130;28;43246;-69
2024/01/10 00:34:28;;;;;;;3.78;2.85;;;;;;;;;;5083932;28;41865;-68
2024/01/10 00:36:57;;;;;;;3.67;2.85;;;;;;;;;;5086725;28;41240;-68
2024/01/10 00:39:25;;;;;;;4.40;3.25;;;;;;;;;;5087968;28;41724;-68
2024/01/10 00:41:52;;;;;;;4.13;2.88;;;;;;;;;;5097672;28;43126;-68
2024/01/10 00:44:20;;;;;;;3.33;2.33;;;;;;;;;;5086226;28;40334;-68
2024/01/10 00:46:48;;;;;;;4.60;3.25;;;;;;;;;;5085809;28;42155;-68
2024/01/10 00:49:18;;;;;;;4.38;3.10;;;;;;;;;;5085587;28;42145;-68
2024/01/10 00:51:46;;;;;;;5.18;3.15;;;;;;;;;;5071635;28;41827;-68
2024/01/10 00:54:14;;;;;;;3.75;2.72;;;;;;;;;;5073112;28;41784;-68
2024/01/10 00:56:42;;;;;;;4.75;3.03;;;;;;;;;;5064385;28;39358;-68
2024/01/10 00:59:09;;;;;;;5.60;2.88;;;;;;;;;;5076756;28;41388;-68
2024/01/10 01:01:38;;;;;;;3.47;2.75;;;;;;;;;;5084585;28;42824;-68
2024/01/10 01:04:06;;;;;;;3.85;2.92;;;;;;;;;;5087907;28;39922;-68
2024/01/10 01:06:35;;;;;;;4.03;3.05;;;;;;;;;;5089866;28;41660;-68
2024/01/10 01:09:03;;;;;;;4.28;2.83;;;;;;;;;;5088634;28;41897;-68
2024/01/10 01:11:31;;;;;;;3.33;2.75;;;;;;;;;;5089781;28;40850;-68
2024/01/10 01:13:59;;;;;;;3.75;2.75;;;;;;;;;;5090031;28;42571;-68
2024/01/10 01:16:27;;;;;;;4.43;3.08;;;;;;;;;;5089256;28;41085;-68
2024/01/10 01:18:55;;;;;;;4.65;3.25;;;;;;;;;;5089604;28;41963;-68
2024/01/10 01:21:23;;;;;;;4.38;3.00;;;;;;;;;;5088290;28;42822;-68
2024/01/10 01:23:52;;;;;;;3.42;2.42;;;;;;;;;;5089025;28;41074;-68
2024/01/10 01:26:20;;;;;;;4.45;3.35;;;;;;;;;;5082949;28;41463;-68
2024/01/10 01:28:48;;;;;;;4.38;3.17;;;;;;;;;;5077716;28;41730;-68
2024/01/10 01:31:16;;;;;;;4.82;2.95;;;;;;;;;;5089285;28;40476;-68
2024/01/10 01:33:44;;;;;;;3.40;2.58;;;;;;;;;;5075183;28;41610;-68
2024/01/10 01:36:12;;;;;;;3.53;2.67;;;;;;;;;;5071482;28;40162;-68
2024/01/10 01:38:40;;;;;;;3.70;2.72;;;;;;;;;;5089497;28;41383;-68
2024/01/10 01:41:10;;;;;;;4.35;3.15;;;;;;;;;;5088878;28;41963;-67
2024/01/10 01:43:38;;;;;;;3.78;2.85;;;;;;;;;;5089288;28;40593;-68
2024/01/10 01:46:06;;;;;;;3.53;2.45;;;;;;;;;;5088691;28;41749;-68
2024/01/10 01:48:34;;;;;;;4.82;2.92;;;;;;;;;;5089895;28;41955;-68
2024/01/10 01:51:03;;;;;;;4.43;2.67;;;;;;;;;;5088401;28;40096;-68
2024/01/10 01:53:31;;;;;;;3.80;2.88;;;;;;;;;;5069829;28;42602;-68
2024/01/10 01:55:59;;;;;;;3.70;2.60;;;;;;;;;;5082150;28;40145;-68
2024/01/10 01:58:28;;;;;;;3.92;2.80;;;;;;;;;;5104451;27;42099;-69
2024/01/10 02:00:56;;;;;;;4.63;3.20;;;;;;;;;;5108455;28;41906;-69
2024/01/10 02:03:24;;;;;;;4.30;2.75;;;;;;;;;;5108351;27;41190;-69
2024/01/10 02:05:52;;;;;;;4.03;2.67;;;;;;;;;;5107909;27;41472;-69
2024/01/10 02:08:20;;;;;;;3.13;2.72;;;;;;;;;;5107281;27;42827;-69
2024/01/10 02:10:48;;;;;;;3.28;2.55;;;;;;;;;;5098470;27;41058;-69
2024/01/10 02:13:16;;;;;;;3.13;2.38;;;;;;;;;;5103374;27;41214;-69
2024/01/10 02:15:45;;;;;;;3.75;2.88;;;;;;;;;;5108205;27;42073;-69
2024/01/10 02:18:14;;;;;;;3.70;2.78;;;;;;;;;;5107880;27;42524;-69
2024/01/10 02:20:44;;;;;;;4.07;3.05;;;;;;;;;;5106841;27;42106;-70
2024/01/10 02:23:12;;;;;;;3.50;2.42;;;;;;;;;;5108417;28;41400;-69
2024/01/10 02:25:41;;;;;;;3.58;2.53;;;;;;;;;;5105087;27;42649;-69
2024/01/10 02:28:10;;;;;;;5.75;2.85;;;;;;;;;;5089231;28;40462;-69
2024/01/10 02:30:38;;;;;;;4.05;2.90;;;;;;;;;;5108009;27;40913;-69
2024/01/10 02:33:06;;;;;;;4.28;2.80;;;;;;;;;;5107229;27;42657;-69
2024/01/10 02:35:34;;;;;;;4.72;2.67;;;;;;;;;;5107953;27;42779;-69
2024/01/10 02:38:02;;;;;;;3.67;2.90;;;;;;;;;;5108351;27;40395;-69
2024/01/10 02:40:30;;;;;;;3.90;3.00;;;;;;;;;;5107022;28;42142;-69
2024/01/10 02:42:59;;;;;;;3.83;3.00;;;;;;;;;;5106702;27;41137;-69
2024/01/10 02:45:27;;;;;;;3.45;2.55;;;;;;;;;;5108525;27;41773;-69
2024/01/10 02:47:55;;;;;;;3.80;2.90;;;;;;;;;;5106906;27;43127;-69
2024/01/10 02:50:23;;;;;;;3.47;2.58;;;;;;;;;;5107630;27;41108;-69
2024/01/10 02:52:51;;;;;;;4.43;2.65;;;;;;;;;;5107099;27;41182;-70
2024/01/10 02:55:19;;;;;;;4.30;3.20;;;;;;;;;;5107602;27;41869;-69
2024/01/10 02:57:47;;;;;;;4.25;2.67;;;;;;;;;;5070117;27;1067619;-69
2024/01/10 03:00:17;;;;;;;4.13;2.90;;;;;;;;;;5108510;27;42478;-69
2024/01/10 03:02:44;;;;;;;3.85;2.88;;;;;;;;;;5108165;27;40258;-69
2024/01/10 03:05:12;;;;;;;4.18;2.67;;;;;;;;;;5108724;27;41490;-69
2024/01/10 03:07:40;;;;;;;4.80;3.17;;;;;;;;;;5106801;27;42056;-69
2024/01/10 03:10:09;;;;;;;4.10;2.88;;;;;;;;;;5108138;27;41546;-69
2024/01/10 03:12:37;;;;;;;4.70;3.13;;;;;;;;;;5108023;27;42159;-69
2024/01/10 03:15:06;;;;;;;4.47;2.88;;;;;;;;;;5107364;27;42100;-69
2024/01/10 03:17:35;;;;;;;5.22;3.05;;;;;;;;;;5108024;27;42437;-69
2024/01/10 03:20:04;;;;;;;3.75;2.70;;;;;;;;;;5107508;28;42042;-69
2024/01/10 03:22:32;;;;;;;3.15;2.53;;;;;;;;;;5107125;27;32814;-69
2024/01/10 03:25:00;;;;;;;4.63;2.92;;;;;;;;;;5108382;27;41029;-69
2024/01/10 03:27:28;;;;;;;3.30;2.65;;;;;;;;;;5107367;27;41613;-69
2024/01/10 03:29:56;;;;;;;4.10;2.92;;;;;;;;;;5114192;27;40862;-69
2024/01/10 03:32:24;;;;;;;4.97;2.75;;;;;;;;;;5107625;27;41734;-69
2024/01/10 03:34:54;;;;;;;3.92;2.90;;;;;;;;;;5107148;28;42062;-69
2024/01/10 03:37:22;;;;;;;3.38;2.47;;;;;;;;;;5106191;27;41408;-70
2024/01/10 03:39:50;;;;;;;3.65;2.60;;;;;;;;;;5106792;27;42270;-69
2024/01/10 03:42:18;;;;;;;4.43;3.05;;;;;;;;;;5107266;27;41982;-69
2024/01/10 03:44:45;;;;;;;3.50;2.50;;;;;;;;;;5107211;27;41567;-69
2024/01/10 03:47:13;;;;;;;4.72;3.22;;;;;;;;;;5107642;27;41725;-69
2024/01/10 03:49:41;;;;;;;4.25;2.75;;;;;;;;;;5096187;27;40920;-70
2024/01/10 03:52:10;;;;;;;3.60;2.80;;;;;;;;;;5107381;27;41216;-69
2024/01/10 03:54:38;;;;;;;3.30;2.30;;;;;;;;;;5107677;27;42050;-69
2024/01/10 03:57:06;;;;;;;4.05;2.90;;;;;;;;;;5106114;27;40399;-69
2024/01/10 03:59:34;;;;;;;4.03;2.80;;;;;;;;;;5108213;27;42216;-69
2024/01/10 04:02:02;;;;;;;5.10;3.30;;;;;;;;;;5120524;27;41750;-69
2024/01/10 04:04:30;;;;;;;3.35;2.58;;;;;;;;;;5093798;27;40275;-69
2024/01/10 04:06:58;;;;;;;3.50;2.70;;;;;;;;;;5106961;27;42604;-69
2024/01/10 04:09:27;;;;;;;4.65;3.17;;;;;;;;;;5119914;27;40397;-69
2024/01/10 04:11:55;;;;;;;4.30;2.95;;;;;;;;;;5107205;27;42667;-69
2024/01/10 04:14:24;;;;;;;4.38;2.97;;;;;;;;;;5106913;28;43040;-69
2024/01/10 04:16:52;;;;;;;3.20;2.45;;;;;;;;;;5105989;27;39871;-69
2024/01/10 04:19:21;;;;;;;3.92;2.78;;;;;;;;;;5091800;27;41596;-69
2024/01/10 04:21:49;;;;;;;3.95;2.75;;;;;;;;;;5101430;27;41891;-69
2024/01/10 04:24:16;;;;;;;3.42;2.50;;;;;;;;;;5113634;27;39792;-69
2024/01/10 04:26:46;;;;;;;4.57;3.20;;;;;;;;;;5114333;27;41576;-69
2024/01/10 04:29:14;;;;;;;3.08;2.60;;;;;;;;;;5081398;28;39130;-69
2024/01/10 04:31:42;;;;;;;4.05;3.13;;;;;;;;;;5098827;27;42143;-69
2024/01/10 04:34:10;;;;;;;4.35;2.50;;;;;;;;;;5106277;27;42815;-69
2024/01/10 04:36:38;;;;;;;4.07;2.50;;;;;;;;;;5098527;27;41167;-69
2024/01/10 04:39:06;;;;;;;3.40;2.55;;;;;;;;;;5089011;27;41670;-69
2024/01/10 04:41:34;;;;;;;3.65;2.55;;;;;;;;;;5106628;27;42245;-69
2024/01/10 04:44:03;;;;;;;3.90;2.95;;;;;;;;;;5092076;27;40320;-68
2024/01/10 04:46:31;;;;;;;3.95;2.50;;;;;;;;;;5106867;27;41027;-68
2024/01/10 04:48:59;;;;;;;3.38;2.80;;;;;;;;;;5096143;27;42894;-68
2024/01/10 04:51:27;;;;;;;4.13;2.50;;;;;;;;;;5107105;27;41778;-68
2024/01/10 04:53:55;;;;;;;2.90;2.60;;;;;;;;;;5104895;27;43172;-68
2024/01/10 04:56:23;;;;;;;4.20;3.15;;;;;;;;;;5106810;27;41021;-69
2024/01/10 04:58:51;;;;;;;4.70;3.15;;;;;;;;;;5106762;27;41362;-68
2024/01/10 05:01:20;;;;;;;3.63;2.70;;;;;;;;;;5106732;27;41745;-69
2024/01/10 05:03:48;;;;;;;4.10;2.90;;;;;;;;;;5105831;27;39948;-68
2024/01/10 05:06:16;;;;;;;3.95;3.08;;;;;;;;;;5106340;27;41523;-68
2024/01/10 05:08:45;;;;;;;3.92;2.75;;;;;;;;;;5077225;28;40717;-69
2024/01/10 05:11:12;;;;;;;3.47;2.88;;;;;;;;;;5102463;27;41408;-69
2024/01/10 05:13:40;;;;;;;3.88;2.95;;;;;;;;;;5105784;27;42004;-69
2024/01/10 05:16:08;;;;;;;5.20;2.70;;;;;;;;;;5106275;27;41042;-70
2024/01/10 05:18:38;;;;;;;4.00;2.45;;;;;;;;;;5105895;27;41373;-70
2024/01/10 05:21:06;;;;;;;4.30;3.03;;;;;;;;;;5106491;27;42467;-69
2024/01/10 05:23:34;;;;;;;3.75;2.65;;;;;;;;;;5097376;27;39954;-69
2024/01/10 05:26:02;;;;;;;3.78;2.72;;;;;;;;;;5107093;27;41560;-70
2024/01/10 05:28:30;;;;;;;4.22;2.88;;;;;;;;;;5106338;27;42803;-68
2024/01/10 05:30:58;;;;;;;3.90;2.97;;;;;;;;;;5106751;27;40333;-68
2024/01/10 05:33:26;;;;;;;4.43;2.88;;;;;;;;;;5105631;27;41657;-68
2024/01/10 05:35:55;;;;;;;4.57;2.90;;;;;;;;;;5105912;27;41549;-68
2024/01/10 05:38:23;;;;;;;3.83;2.70;;;;;;;;;;5106414;28;41215;-68
2024/01/10 05:40:51;;;;;;;3.83;2.75;;;;;;;;;;5105970;27;42268;-68
2024/01/10 05:43:20;;;;;;;4.00;2.90;;;;;;;;;;5105264;27;41348;-68
2024/01/10 05:45:48;;;;;;;3.78;2.65;;;;;;;;;;5105918;27;42537;-68
2024/01/10 05:48:17;;;;;;;4.53;3.38;;;;;;;;;;5100997;27;42134;-68
2024/01/10 05:50:45;;;;;;;3.50;2.72;;;;;;;;;;5102890;27;40212;-68
2024/01/10 05:53:16;;;;;;;3.63;2.50;;;;;;;;;;5110162;27;41680;-68
2024/01/10 05:55:44;;;;;;;3.83;2.80;;;;;;;;;;5106444;27;39673;-68
2024/01/10 05:58:12;;;;;;;3.92;2.85;;;;;;;;;;5109329;27;42243;-68
2024/01/10 06:00:40;;;;;;;4.68;3.28;;;;;;;;;;5110181;28;43297;-68
2024/01/10 06:03:09;;;;;;;4.18;3.17;;;;;;;;;;5109444;27;40865;-68
2024/01/10 06:05:37;;;;;;;4.03;3.05;;;;;;;;;;5109235;27;41563;-68
2024/01/10 06:08:05;;;;;;;3.72;2.92;;;;;;;;;;5109120;27;42742;-68
2024/01/10 06:10:34;;;;;;;4.55;3.28;;;;;;;;;;5108998;27;42274;-68
2024/01/10 06:13:05;;;;;;;5.82;3.15;;;;;;;;;;5109332;27;42523;-67
2024/01/10 06:15:33;;;;;;;4.53;3.13;;;;;;;;;;5109932;27;43071;-68
2024/01/10 06:18:01;;;;;;;4.20;3.03;;;;;;;;;;5108025;27;41144;-68
2024/01/10 06:20:31;;;;;;;4.28;3.50;;;;;;;;;;5103616;27;43237;-68
2024/01/10 06:23:00;;;;;;;4.25;3.45;;;;;;;;;;5099706;27;40118;-68
2024/01/10 06:25:28;;;;;;;4.05;3.30;;;;;;;;;;5107971;27;41780;-68
2024/01/10 06:27:57;;;;;;;4.70;3.38;;;;;;;;;;5108463;27;42502;-68
2024/01/10 06:30:25;;;;;;;4.10;2.88;;;;;;;;;;5107501;27;40374;-68
2024/01/10 06:32:53;;;;;;;6.03;3.92;;;;;;;;;;5105929;27;41000;-68
2024/01/10 06:35:21;;;;;;;5.07;3.70;;;;;;;;;;5108429;28;42293;-68
2024/01/10 06:37:49;;;;;;;4.45;2.97;;;;;;;;;;5109054;27;41352;-68
2024/01/10 06:40:17;;;;;;;4.20;3.08;;;;;;;;;;5108682;27;42197;-67
2024/01/10 06:42:45;;;;;;;5.43;3.80;;;;;;;;;;5107899;27;40396;-68
2024/01/10 06:45:14;;;;;;;5.53;3.80;;;;;;;;;;5101900;27;41795;-68
2024/01/10 06:47:42;;;;;;;5.90;3.38;;;;;;;;;;5106258;27;42400;-68
2024/01/10 06:50:11;;;;;;;6.30;3.80;;;;;;;;;;5119293;27;40373;-68
2024/01/10 06:52:39;;;;;;;5.25;3.40;;;;;;;;;;5109245;27;41474;-68
2024/01/10 06:55:08;;;;;;;4.88;3.20;;;;;;;;;;5103423;27;41851;-68
2024/01/10 06:57:36;;;;;;;5.57;3.72;;;;;;;;;;5121938;27;41317;-68
2024/01/10 07:00:06;;;;;;;4.70;3.53;;;;;;;;;;5098453;27;41647;-68
2024/01/10 07:02:36;;;;;;;5.35;4.00;;;;;;;;;;5106722;27;39930;-68
2024/01/10 07:05:05;;;;;;;5.55;3.60;;;;;;;;;;5101293;27;41920;-68
2024/01/10 07:07:35;;;;;;;5.70;3.53;;;;;;;;;;5101694;27;42071;-68
2024/01/10 07:10:04;;;;;;;5.53;3.97;;;;;;;;;;5108009;27;40214;-67
2024/01/10 07:12:32;;;;;;;5.45;3.90;;;;;;;;;;5129055;27;41754;-68
2024/01/10 07:15:02;;;;;;;4.53;3.50;;;;;;;;;;5108540;27;42746;-68
2024/01/10 07:17:31;;;;;;;4.40;3.25;;;;;;;;;;5108512;27;41411;-68
2024/01/10 07:20:00;;;;;;;4.68;3.20;;;;;;;;;;5121605;27;41514;-68
2024/01/10 07:22:28;;;;;;;4.82;3.42;;;;;;;;;;5108128;27;42685;-68
2024/01/10 07:24:57;;;;;;;5.55;4.40;;;;;;;;;;5107914;27;41381;-68
2024/01/10 07:27:25;;;;;;;6.22;3.53;;;;;;;;;;5107793;27;41891;-68
2024/01/10 07:29:53;;;;;;;4.68;3.47;;;;;;;;;;5112807;27;40923;-68
2024/01/10 07:32:21;;;;;;;4.18;3.20;;;;;;;;;;5110950;27;42378;-68
2024/01/10 07:34:49;;;;;;;6.20;4.05;;;;;;;;;;5107274;28;40622;-68
2024/01/10 07:37:20;;;;;;;6.07;4.32;;;;;;;;;;5089489;27;39487;-68
2024/01/10 07:39:50;;;;;;;6.63;4.75;;;;;;;;;;5098055;28;41120;-68
2024/01/10 07:42:18;;;;;;;6.22;4.28;;;;;;;;;;5103364;27;42765;-68
2024/01/10 07:44:46;;;;;;;5.45;3.60;;;;;;;;;;5108082;27;41671;-68
2024/01/10 07:47:17;;;;;;;5.57;4.03;;;;;;;;;;5106771;27;41641;-68
2024/01/10 07:49:45;;;;;;;5.75;4.40;;;;;;;;;;5100504;27;42229;-68
2024/01/10 07:52:13;;;;;;;5.20;3.85;;;;;;;;;;5114616;27;41688;-68
2024/01/10 07:54:42;;;;;;;5.82;4.20;;;;;;;;;;5107416;27;42632;-67
2024/01/10 07:57:11;;;;;;;6.35;3.95;;;;;;;;;;5083552;28;40127;-68
2024/01/10 07:59:38;;;;;;;7.38;4.80;;;;;;;;;;5121505;27;41688;-68
2024/01/10 08:02:07;;;;;;;7.30;5.03;;;;;;;;;;5114441;27;43259;-68
2024/01/10 08:04:35;;;;;;;6.28;4.60;;;;;;;;;;5104221;27;41374;-68
2024/01/10 08:07:03;;;;;;;7.93;4.47;;;;;;;;;;5095209;27;41906;-68
2024/01/10 08:09:31;;;;;;;7.22;4.15;;;;;;;;;;5104324;27;40556;-69
2024/01/10 08:12:01;;;;;;;5.90;4.05;;;;;;;;;;5117906;27;41599;-67
2024/01/10 08:14:29;;;;;;;14.57;4.55;;;;;;;;;;5096814;28;42670;-68
2024/01/10 08:16:58;;;;;;;7.47;4.55;;;;;;;;;;5107333;27;40052;-66
2024/01/10 08:19:26;;;;;;;6.97;4.45;;;;;;;;;;5104564;27;42464;-67
2024/01/10 08:21:54;;;;;;;6.63;4.28;;;;;;;;;;5096374;27;41697;-68
2024/01/10 08:24:22;;;;;;;6.55;3.88;;;;;;;;;;5097839;27;41350;-68
2024/01/10 08:26:51;;;;;;;7.15;3.97;;;;;;;;;;5115548;27;42335;-68
2024/01/10 08:29:21;;;;;;;6.22;3.88;;;;;;;;;;5105960;27;40566;-69
2024/01/10 08:31:49;;;;;;;7.07;4.65;;;;;;;;;;5105434;27;41634;-71
2024/01/10 08:34:18;;;;;;;11.48;4.47;;;;;;;;;;5105004;27;43090;-71
2024/01/10 08:36:48;;;;;;;8.07;4.22;;;;;;;;;;5106316;28;39891;-69
2024/01/10 08:39:18;;;;;;;6.43;4.45;;;;;;;;;;5104707;28;41505;-69
2024/01/10 08:41:46;;;;;;;7.63;4.20;;;;;;;;;;5106702;28;42841;-69
2024/01/10 08:44:14;;;;;;;8.50;4.28;;;;;;;;;;5106952;27;40821;-70
2024/01/10 08:46:43;;;;;;;5.65;4.13;;;;;;;;;;5105584;27;41617;-71
2024/01/10 08:49:11;;;;;;;6.72;4.30;;;;;;;;;;5093088;27;42060;-71
2024/01/10 08:51:40;;;;;;;8.00;4.28;;;;;;;;;;5104263;27;42665;-72
2024/01/10 08:54:08;;;;;;;6.32;4.60;;;;;;;;;;5106156;27;43132;-72
2024/01/10 08:56:36;;;;;;;11.60;3.72;;;;;;;;;;5102812;27;40431;-69
2024/01/10 08:59:04;;;;;;;6.28;4.38;;;;;;;;;;5092500;27;42040;-77
2024/01/10 09:01:34;;;;;;;10.50;4.97;;;;;;;;;;5096404;27;42365;-74
2024/01/10 09:04:04;;;;;;;8.30;4.72;;;;;;;;;;5097988;27;41761;-75
2024/01/10 09:06:32;;;;;;;14.98;5.70;;;;;;;;;;5099247;28;41057;-78
2024/01/10 09:09:01;;;;;;;12.48;5.45;;;;;;;;;;5107537;27;41759;-76
2024/01/10 09:11:29;;;;;;;8.65;5.07;;;;;;;;;;5107961;27;39578;-77
2024/01/10 09:13:56;;;;;;;8.45;5.22;;;;;;;;;;5107099;27;42083;-76
2024/01/10 09:16:24;;;;;;;7.38;4.25;;;;;;;;;;5106720;27;39964;-74
2024/01/10 09:18:56;;;;;;;8.65;4.78;;;;;;;;;;5104914;27;42228;-76
2024/01/10 09:21:26;;;;;;;7.25;4.93;;;;;;;;;;5108446;27;42772;-78
2024/01/10 09:23:55;;;;;;;8.40;4.78;;;;;;;;;;5109672;27;39453;-77
2024/01/10 09:26:23;;;;;;;7.63;4.85;;;;;;;;;;5113009;28;41372;-77
2024/01/10 09:28:51;;;;;;;9.18;5.20;;;;;;;;;;5112232;27;41601;-78
2024/01/10 09:31:19;;;;;;;8.20;5.05;;;;;;;;;;5113032;27;40785;-77
2024/01/10 09:33:47;;;;;;;7.20;4.88;;;;;;;;;;5110359;27;41837;-76
2024/01/10 09:36:15;;;;;;;6.97;4.38;;;;;;;;;;5110266;27;39828;-74
2024/01/10 09:38:45;;;;;;;7.22;5.20;;;;;;;;;;5108576;27;42577;-75
2024/01/10 09:41:13;;;;;;;8.50;5.38;;;;;;;;;;5107485;27;43149;-75
2024/01/10 09:43:41;;;;;;;7.45;4.75;;;;;;;;;;5110587;27;40110;-75
2024/01/10 09:46:10;;;;;;;9.15;4.95;;;;;;;;;;5126096;27;41710;-74
2024/01/10 09:48:38;;;;;;;9.63;4.70;;;;;;;;;;5116419;27;41691;-76
2024/01/10 09:51:06;;;;;;;8.73;4.93;;;;;;;;;;5121067;27;40498;-75
2024/01/10 09:53:36;;;;;;;7.30;4.88;;;;;;;;;;5111218;27;41268;-77
2024/01/10 09:56:08;;;;;;;9.38;4.50;;;;;;;;;;5110436;28;39822;-74
2024/01/10 09:58:39;;;;;;;7.95;4.20;;;;;;;;;;5096505;27;41131;-76
2024/01/10 10:01:08;;;;;;;6.47;4.53;;;;;;;;;;5106509;27;43583;-76
2024/01/10 10:03:37;;;;;;;8.90;5.57;;;;;;;;;;5109923;27;40409;-72
2024/01/10 10:06:05;;;;;;;6.03;4.35;;;;;;;;;;5110154;27;41269;-72
2024/01/10 10:08:33;;;;;;;8.98;5.10;;;;;;;;;;5100827;27;42086;-67
2024/01/10 10:11:02;;;;;;;11.48;4.70;;;;;;;;;;5093675;27;38786;-67
2024/01/10 10:13:31;;;;;;;7.53;5.03;;;;;;;;;;5110070;27;42304;-70
2024/01/10 10:16:00;;;;;;;7.72;4.90;;;;;;;;;;5108385;27;42450;-70
2024/01/10 10:18:28;;;;;;;8.13;4.38;;;;;;;;;;5109008;27;41647;-69
2024/01/10 10:21:07;;;;;;;9.98;4.57;;;;;;;;;;5108677;27;41984;-71
2024/01/10 10:23:35;;;;;;;7.03;4.88;;;;;;;;;;5109504;27;40026;-71
2024/01/10 10:26:13;;;;;;;8.23;4.85;;;;;;;;;;5109028;27;41264;-71
2024/01/10 10:28:43;;;;;;;10.02;4.55;;;;;;;;;;5108824;28;42087;-71
2024/01/10 10:31:11;;;;;;;10.27;5.60;;;;;;;;;;5108642;27;40721;-71
2024/01/10 10:33:39;;;;;;;8.63;5.28;;;;;;;;;;5108648;27;41643;-71
2024/01/10 10:36:08;;;;;;;6.60;4.60;;;;;;;;;;5108891;27;43154;-74
2024/01/10 10:38:36;;;;;;;10.77;4.72;;;;;;;;;;5121942;27;40233;-75
2024/01/10 10:41:06;;;;;;;6.57;4.47;;;;;;;;;;5112785;27;41101;-78
2024/01/10 10:43:35;;;;;;;6.80;4.35;;;;;;;;;;5117483;27;41556;-72
2024/01/10 10:46:04;;;;;;;7.80;5.40;;;;;;;;;;5096742;27;40993;-72
2024/01/10 10:48:33;;;;;;;9.10;4.93;;;;;;;;;;5109097;27;41489;-72
2024/01/10 10:51:06;;;;;;;9.27;5.28;;;;;;;;;;5112207;27;39872;-72
2024/01/10 10:53:37;;;;;;;7.57;4.72;;;;;;;;;;5103402;27;41103;-72
2024/01/10 10:56:05;;;;;;;8.20;4.47;;;;;;;;;;5111111;27;43161;-73
2024/01/10 10:58:35;;;;;;;9.43;4.55;;;;;;;;;;5080386;28;40497;-73
2024/01/10 11:01:06;;;;;;;6.05;4.40;;;;;;;;;;5079681;28;41879;-72
2024/01/10 11:03:34;;;;;;;5.50;4.28;;;;;;;;;;5078645;28;39440;-72
2024/01/10 11:06:03;;;;;;;8.90;4.35;;;;;;;;;;5083505;28;41993;-72
2024/01/10 11:08:31;;;;;;;7.78;5.13;;;;;;;;;;5090092;28;43588;-73
2024/01/10 11:10:59;;;;;;;6.85;4.38;;;;;;;;;;5091090;28;41275;-73
2024/01/10 11:13:28;;;;;;;6.75;4.90;;;;;;;;;;5074411;28;41532;-73
2024/01/10 11:16:15;;;;;;;8.73;5.43;;;;;;;;;;5094169;28;41744;-73
2024/01/10 11:18:50;;;;;;;9.52;5.57;;;;;;;;;;5087056;28;40362;-74
2024/01/10 11:21:20;;;;;;;8.43;5.65;;;;;;;;;;5083326;28;41853;-73
2024/01/10 11:23:48;;;;;;;8.65;4.60;;;;;;;;;;5082484;28;42531;-73
2024/01/10 11:26:16;;;;;;;7.13;4.47;;;;;;;;;;5094801;28;41270;-72
2024/01/10 11:28:44;;;;;;;7.93;5.00;;;;;;;;;;5088248;28;42845;-72
2024/01/10 11:31:12;;;;;;;8.35;5.10;;;;;;;;;;5084024;28;40389;-73
2024/01/10 11:33:43;;;;;;;6.35;4.53;;;;;;;;;;5085697;28;41070;-72
2024/01/10 11:36:15;;;;;;;10.10;5.45;;;;;;;;;;5084531;28;42478;-72
2024/01/10 11:38:44;;;;;;;7.60;4.95;;;;;;;;;;5087800;28;39928;-72
2024/01/10 11:41:12;;;;;;;6.28;4.32;;;;;;;;;;5090161;28;41540;-72
2024/01/10 11:43:41;;;;;;;6.88;5.10;;;;;;;;;;5080634;28;43844;-73
2024/01/10 11:46:09;;;;;;;6.63;5.15;;;;;;;;;;5082462;28;40404;-71
2024/01/10 11:48:38;;;;;;;8.05;4.80;;;;;;;;;;5077591;28;42658;-72
2024/01/10 11:51:07;;;;;;;7.40;5.28;;;;;;;;;;5085909;28;39985;-72
2024/01/10 11:53:45;;;;;;;7.25;5.32;;;;;;;;;;5101940;28;41316;-71
2024/01/10 11:56:15;;;;;;;6.97;4.88;;;;;;;;;;5099486;27;41215;-72
2024/01/10 11:58:53;;;;;;;6.65;5.15;;;;;;;;;;5126013;27;41405;-72
2024/01/10 12:01:21;;;;;;;8.35;5.35;;;;;;;;;;5122322;27;41407;-71
2024/01/10 12:03:51;;;;;;;6.60;4.20;;;;;;;;;;5118007;27;43260;-71
2024/01/10 12:06:38;;;;;;;9.35;4.63;;;;;;;;;;5123404;27;40147;-69
2024/01/10 12:09:09;;;;;;;7.90;5.15;;;;;;;;;;5124712;27;41929;-69
2024/01/10 12:11:39;;;;;;;7.68;5.18;;;;;;;;;;5119869;27;41133;-68
2024/01/10 12:14:07;;;;;;;6.90;4.85;;;;;;;;;;5107614;27;41266;-72
2024/01/10 12:16:35;;;;;;;7.50;4.20;;;;;;;;;;5104140;27;41889;-72
2024/01/10 12:19:03;;;;;;;8.20;4.60;;;;;;;;;;5105885;27;39223;-72
2024/01/10 12:21:31;;;;;;;7.50;4.63;;;;;;;;;;5111377;27;41675;-73
2024/01/10 12:23:59;;;;;;;6.35;4.57;;;;;;;;;;5093897;28;40405;-73
2024/01/10 12:26:28;;;;;;;9.23;5.18;;;;;;;;;;5115383;27;41039;-74
2024/01/10 12:28:56;;;;;;;7.30;4.75;;;;;;;;;;5098493;27;40139;-74
2024/01/10 12:31:25;;;;;;;7.75;4.75;;;;;;;;;;5107818;27;40407;-74
2024/01/10 12:33:53;;;;;;;5.72;4.43;;;;;;;;;;5099861;27;41932;-74
2024/01/10 12:36:21;;;;;;;6.75;4.32;;;;;;;;;;5106550;27;42842;-74
2024/01/10 12:38:49;;;;;;;7.43;5.03;;;;;;;;;;5105907;27;41378;-74
2024/01/10 12:41:17;;;;;;;10.20;4.55;;;;;;;;;;5108146;28;42383;-72
2024/01/10 12:43:51;;;;;;;9.68;4.40;;;;;;;;;;5106794;27;42675;-71
2024/01/10 12:46:19;;;;;;;8.45;4.55;;;;;;;;;;5103624;27;40187;-72
2024/01/10 12:48:49;;;;;;;6.10;4.28;;;;;;;;;;5106192;27;41396;-72
2024/01/10 12:51:17;;;;;;;8.82;4.60;;;;;;;;;;5105359;27;42168;-72
2024/01/10 12:53:50;;;;;;;7.20;4.85;;;;;;;;;;5106504;27;42649;-72
2024/01/10 12:56:18;;;;;;;6.78;5.15;;;;;;;;;;5106362;27;40960;-72
2024/01/10 12:58:46;;;;;;;6.45;4.50;;;;;;;;;;5106903;27;41439;-72
2024/01/10 13:01:15;;;;;;;7.70;5.07;;;;;;;;;;5109695;27;42182;-72
2024/01/10 13:03:43;;;;;;;7.45;5.03;;;;;;;;;;5110780;27;41988;-72
2024/01/10 13:06:11;;;;;;;8.10;5.28;;;;;;;;;;5108394;27;39805;-72
2024/01/10 13:08:39;;;;;;;5.75;4.45;;;;;;;;;;5111792;27;41227;-72
2024/01/10 13:11:09;;;;;;;7.20;5.13;;;;;;;;;;5109781;27;42799;-72
2024/01/10 13:13:37;;;;;;;10.25;5.60;;;;;;;;;;5109509;27;41344;-72
2024/01/10 13:16:05;;;;;;;6.68;4.78;;;;;;;;;;5109222;27;43124;-72
2024/01/10 13:18:35;;;;;;;7.18;5.55;;;;;;;;;;5110496;27;40996;-72
2024/01/10 13:21:03;;;;;;;7.88;5.50;;;;;;;;;;5099118;27;41421;-72
2024/01/10 13:23:31;;;;;;;6.78;4.70;;;;;;;;;;5109831;27;42066;-72
2024/01/10 13:25:59;;;;;;;6.93;5.35;;;;;;;;;;5110201;27;40191;-72
2024/01/10 13:28:28;;;;;;;7.28;5.13;;;;;;;;;;5110250;28;41658;-72
2024/01/10 13:30:56;;;;;;;8.60;5.30;;;;;;;;;;5109665;27;43137;-72
2024/01/10 13:33:26;;;;;;;6.38;4.68;;;;;;;;;;5110148;28;40858;-70
2024/01/10 13:35:55;;;;;;;7.18;5.07;;;;;;;;;;5108786;27;41385;-70
2024/01/10 13:38:24;;;;;;;8.13;5.50;;;;;;;;;;5107852;27;41293;-69
2024/01/10 13:40:52;;;;;;;13.18;5.95;;;;;;;;;;5117442;27;42289;-72
2024/01/10 13:43:20;;;;;;;6.82;4.97;;;;;;;;;;5112245;27;41979;-72
2024/01/10 13:45:48;;;;;;;6.75;4.57;;;;;;;;;;5097055;27;41058;-74
2024/01/10 13:48:16;;;;;;;8.20;5.72;;;;;;;;;;5113062;27;41095;-70
2024/01/10 13:50:46;;;;;;;8.23;5.20;;;;;;;;;;5111205;27;41643;-70
2024/01/10 13:53:17;;;;;;;6.93;4.90;;;;;;;;;;5114119;27;40275;-70
2024/01/10 13:55:46;;;;;;;7.85;5.10;;;;;;;;;;5102174;27;42730;-71
2024/01/10 13:58:14;;;;;;;9.60;5.47;;;;;;;;;;5089630;28;33843;-73
2024/01/10 14:00:42;;;;;;;7.55;5.00;;;;;;;;;;5079048;28;42556;-70
2024/01/10 14:03:12;;;;;;;12.02;5.20;;;;;;;;;;5082250;28;41832;-71
2024/01/10 14:05:40;;;;;;;11.93;5.32;;;;;;;;;;5081706;28;40001;-70
2024/01/10 14:08:08;;;;;;;12.02;4.88;;;;;;;;;;5082292;28;41051;-71
2024/01/10 14:10:40;;;;;;;7.35;5.07;;;;;;;;;;5081173;28;41992;-70
2024/01/10 14:13:08;;;;;;;8.60;5.45;;;;;;;;;;5080802;28;41254;-69
2024/01/10 14:15:36;;;;;;;7.18;4.68;;;;;;;;;;5085293;28;41161;-72
2024/01/10 14:18:04;;;;;;;6.60;4.57;;;;;;;;;;5089919;28;42347;-72
2024/01/10 14:20:32;;;;;;;9.80;5.13;;;;;;;;;;5118545;22;42667;-74
2024/01/10 14:23:01;;;;;;;11.32;5.20;;;;;;;;;;5067254;28;42074;-73
2024/01/10 14:25:29;;;;;;;10.65;5.10;;;;;;;;;;5061924;28;40639;-73
2024/01/10 14:28:00;;;;;;;9.70;5.40;;;;;;;;;;5067238;28;41329;-73
2024/01/10 14:30:28;;;;;;;7.45;4.00;;;;;;;;;;5059024;28;42716;-75
2024/01/10 14:32:56;;;;;;;8.45;4.70;;;;;;;;;;5068176;28;39833;-75
2024/01/10 14:35:24;;;;;;;8.68;5.10;;;;;;;;;;5063098;28;41580;-74
2024/01/10 14:37:53;;;;;;;7.13;4.03;;;;;;;;;;5065740;28;41954;-75
2024/01/10 14:40:23;;;;;;;9.48;4.53;;;;;;;;;;5062916;28;40271;-75
2024/01/10 14:42:51;;;;;;;7.07;4.68;;;;;;;;;;5059137;28;43236;-76
2024/01/10 14:45:20;;;;;;;9.73;5.53;;;;;;;;;;5066582;28;39175;-70
2024/01/10 14:47:49;;;;;;;10.82;5.82;;;;;;;;;;5065194;28;41277;-76
2024/01/10 14:50:18;;;;;;;10.00;5.30;;;;;;;;;;5053432;28;42278;-71
2024/01/10 14:52:46;;;;;;;9.77;4.85;;;;;;;;;;5064417;28;41349;-73